Time;durP1;ratioP1;P1;durP2;ratioP2;P2;SDS_P1;SDS_P2;PMS_P1;PMS_P2;Temp;Humidity;BMP_temperature;BMP_pressure;BME280_temperature;BME280_humidity;BME280_pressure;Samples;Min_cycle;Max_cycle;Signal;HPM_P1;HPM_P2
2023/08/14 00:01:06;;;;;;;4.03;2.72;;;;;;;23.44;65.47;97253.75;4964702;28;20068;-85
2023/08/14 00:03:31;;;;;;;2.90;2.40;;;;;;;23.35;65.60;97243.19;4957264;28;20455;-85
2023/08/14 00:05:57;;;;;;;2.65;2.45;;;;;;;23.40;65.93;97260.03;4949976;28;20114;-85
2023/08/14 00:08:22;;;;;;;3.63;2.42;;;;;;;23.36;65.53;97247.41;4937038;28;20121;-85
2023/08/14 00:10:47;;;;;;;4.97;2.40;;;;;;;23.35;65.72;97253.81;4985121;28;20035;-84
2023/08/14 00:13:13;;;;;;;3.00;2.60;;;;;;;23.22;65.47;97236.28;4970474;28;20062;-85
2023/08/14 00:15:39;;;;;;;2.75;2.50;;;;;;;23.29;65.60;97260.44;4972914;28;20464;-85
2023/08/14 00:18:04;;;;;;;3.53;3.33;;;;;;;23.27;65.36;97257.34;4934002;29;20078;-86
2023/08/14 00:20:30;;;;;;;3.40;3.10;;;;;;;23.18;65.98;97260.06;4942604;29;20057;-85
2023/08/14 00:22:56;;;;;;;5.15;4.65;;;;;;;22.93;66.35;97243.19;4949858;29;20027;-84
2023/08/14 00:25:22;;;;;;;5.57;3.90;;;;;;;22.93;66.39;97253.03;4968743;28;20097;-85
2023/08/14 00:27:47;;;;;;;4.03;3.55;;;;;;;22.91;66.25;97247.25;4954954;28;20035;-85
2023/08/14 00:30:13;;;;;;;4.90;3.20;;;;;;;22.98;65.63;97258.91;4950892;28;20042;-85
2023/08/14 00:32:38;;;;;;;3.72;2.95;;;;;;;23.02;65.53;97261.69;4985046;28;20035;-84
2023/08/14 00:35:04;;;;;;;3.85;3.03;;;;;;;22.98;66.25;97252.84;4960199;28;20398;-84
2023/08/14 00:37:48;;;;;;;3.63;2.53;;;;;;;23.05;65.92;97245.13;4933702;29;20070;-85
2023/08/14 00:40:15;;;;;;;3.00;2.70;;;;;;;23.03;66.10;97244.69;4933949;28;20030;-84
2023/08/14 00:42:42;;;;;;;2.70;2.50;;;;;;;23.09;65.67;97248.72;4927910;29;20034;-84
2023/08/14 00:45:09;;;;;;;3.15;2.92;;;;;;;23.09;66.04;97232.78;4935006;28;20117;-85
2023/08/14 00:47:37;;;;;;;2.78;2.58;;;;;;;23.16;65.52;97242.88;4984825;28;20390;-79
2023/08/14 00:50:07;;;;;;;3.80;2.92;;;;;;;23.20;65.79;97238.47;4975643;28;20042;-78
2023/08/14 00:52:34;;;;;;;2.95;2.60;;;;;;;23.22;65.28;97233.63;4950851;28;20398;-78
2023/08/14 00:55:01;;;;;;;3.13;2.78;;;;;;;23.22;65.61;97232.81;4966543;28;20098;-78
2023/08/14 00:57:30;;;;;;;3.05;2.75;;;;;;;23.17;65.92;97231.16;4985152;28;20034;-78
2023/08/14 00:59:56;;;;;;;2.70;2.50;;;;;;;23.27;65.53;97237.94;4968748;28;20031;-78
2023/08/14 01:02:29;;;;;;;3.00;2.67;;;;;;;23.35;65.37;97247.72;4975483;23;20031;-86
2023/08/14 01:04:55;;;;;;;6.65;2.78;;;;;;;23.30;65.29;97238.06;4966148;28;20479;-85
2023/08/14 01:07:20;;;;;;;9.60;2.83;;;;;;;23.50;64.32;97247.13;4937257;28;20081;-85
2023/08/14 01:09:47;;;;;;;3.20;2.90;;;;;;;23.30;65.22;97227.44;4949736;29;20035;-85
2023/08/14 01:12:38;;;;;;;2.58;2.33;;;;;;;23.41;65.99;97232.34;4935570;28;20065;-85
2023/08/14 01:15:09;;;;;;;3.75;3.00;;;;;;;23.33;66.01;97228.69;4968948;28;20035;-85
2023/08/14 01:17:35;;;;;;;3.17;2.72;;;;;;;23.29;65.75;97230.44;4934062;29;20023;-85
2023/08/14 01:20:01;;;;;;;3.05;2.75;;;;;;;23.28;66.17;97232.31;4942920;28;20343;-85
2023/08/14 01:22:39;;;;;;;3.08;2.78;;;;;;;23.34;66.10;97238.97;4951528;28;20151;-85
2023/08/14 01:25:20;;;;;;;4.68;2.72;;;;;;;23.38;66.35;97245.19;4953804;28;20043;-85
2023/08/14 01:27:46;;;;;;;2.67;2.45;;;;;;;23.28;66.08;97234.19;4967303;28;20027;-85
2023/08/14 01:30:11;;;;;;;3.15;2.85;;;;;;;23.23;66.58;97221.88;4951832;29;20434;-85
2023/08/14 01:32:37;;;;;;;2.75;2.45;;;;;;;23.19;66.64;97226.31;4953202;29;20027;-85
2023/08/14 01:35:03;;;;;;;3.72;2.97;;;;;;;23.20;66.74;97227.84;4953736;28;20039;-85
2023/08/14 01:37:35;;;;;;;3.38;2.55;;;;;;;23.09;66.64;97202.78;4940759;28;20039;-85
2023/08/14 01:40:18;;;;;;;3.33;2.88;;;;;;;23.27;66.58;97222.78;4925228;28;20042;-85
2023/08/14 01:42:48;;;;;;;2.95;2.60;;;;;;;23.07;66.96;97202.34;4944705;28;20461;-86
2023/08/14 01:45:17;;;;;;;4.30;3.10;;;;;;;22.97;66.69;97183.00;4940108;28;20069;-86
2023/08/14 01:47:45;;;;;;;4.72;2.90;;;;;;;23.19;67.08;97213.00;4952769;28;20135;-86
2023/08/14 01:50:13;;;;;;;3.45;2.90;;;;;;;23.11;66.91;97211.22;4962014;28;20101;-85
2023/08/14 01:52:38;;;;;;;3.78;2.88;;;;;;;23.02;66.96;97192.66;4971293;28;20035;-85
2023/08/14 01:55:04;;;;;;;3.22;2.67;;;;;;;23.09;66.75;97210.75;4955973;28;20089;-86
2023/08/14 01:57:30;;;;;;;3.30;2.35;;;;;;;22.97;66.96;97192.84;4944968;29;20384;-85
2023/08/14 01:59:55;;;;;;;3.60;2.88;;;;;;;22.92;66.71;97190.41;4968737;28;20034;-85
2023/08/14 02:02:20;;;;;;;3.38;2.78;;;;;;;22.98;66.77;97199.72;4954787;28;20513;-85
2023/08/14 02:04:46;;;;;;;3.38;3.08;;;;;;;22.88;67.02;97200.91;4939965;28;20065;-85
2023/08/14 02:07:12;;;;;;;3.05;2.80;;;;;;;22.81;67.14;97190.03;4937918;28;20062;-85
2023/08/14 02:09:38;;;;;;;2.80;2.38;;;;;;;22.72;67.18;97171.50;4940708;28;20031;-85
2023/08/14 02:12:03;;;;;;;3.55;2.65;;;;;;;22.67;67.28;97157.63;4952093;28;20050;-85
2023/08/14 02:14:29;;;;;;;2.95;2.60;;;;;;;22.73;66.90;97183.66;4945577;29;20470;-85
2023/08/14 02:16:55;;;;;;;3.53;3.08;;;;;;;22.60;66.94;97163.44;4949911;29;20031;-85
2023/08/14 02:19:20;;;;;;;3.20;2.30;;;;;;;22.63;66.43;97168.88;4955094;28;20046;-85
2023/08/14 02:21:46;;;;;;;2.63;2.42;;;;;;;22.67;66.53;97181.50;4971606;28;20151;-85
2023/08/14 02:24:11;;;;;;;4.05;2.67;;;;;;;22.65;66.40;97181.06;4955524;28;20037;-86
2023/08/14 02:26:36;;;;;;;2.70;2.33;;;;;;;22.60;66.25;97177.50;4952676;29;20041;-85
2023/08/14 02:29:03;;;;;;;3.35;2.30;;;;;;;22.49;66.83;97167.59;4926670;28;20038;-86
2023/08/14 02:31:28;;;;;;;2.90;2.70;;;;;;;22.59;66.86;97189.22;4940250;28;20026;-85
2023/08/14 02:33:58;;;;;;;2.53;2.33;;;;;;;22.54;67.04;97176.13;4969349;28;20027;-86
2023/08/14 02:36:24;;;;;;;3.55;2.70;;;;;;;22.55;66.75;97179.56;4940246;28;20030;-86
2023/08/14 02:38:49;;;;;;;3.75;2.90;;;;;;;22.38;67.15;97157.38;4939152;28;20031;-86
2023/08/14 02:41:14;;;;;;;3.65;2.70;;;;;;;22.46;67.22;97158.38;4971448;28;20038;-86
2023/08/14 02:43:40;;;;;;;2.80;2.60;;;;;;;22.52;67.17;97167.72;4964708;28;20038;-86
2023/08/14 02:46:05;;;;;;;4.25;2.70;;;;;;;22.50;67.20;97166.47;4969821;28;20479;-86
2023/08/14 02:48:31;;;;;;;2.67;2.47;;;;;;;22.49;67.30;97167.59;4955661;28;20038;-85
2023/08/14 02:50:56;;;;;;;2.47;2.28;;;;;;;22.49;67.69;97168.38;4939681;28;20038;-86
2023/08/14 02:53:21;;;;;;;3.00;2.50;;;;;;;22.41;67.58;97155.94;4970886;28;20402;-85
2023/08/14 02:55:51;;;;;;;3.22;2.95;;;;;;;22.48;67.33;97156.19;4956249;28;20035;-85
2023/08/14 02:58:18;;;;;;;4.15;2.78;;;;;;;22.53;67.38;97161.31;4936285;28;20027;-86
2023/08/14 03:00:47;;;;;;;3.60;3.30;;;;;;;22.58;67.57;97161.13;4920741;29;20035;-86
2023/08/14 03:03:13;;;;;;;3.25;2.95;;;;;;;22.52;67.52;97146.50;4929459;28;20648;-86
2023/08/14 03:05:39;;;;;;;3.15;2.95;;;;;;;22.56;67.48;97141.31;4952185;28;20039;-85
2023/08/14 03:08:04;;;;;;;2.97;2.67;;;;;;;22.43;67.43;97132.50;4942221;28;20036;-86
2023/08/14 03:10:30;;;;;;;3.10;2.80;;;;;;;22.51;67.59;97141.50;4953108;28;20097;-86
2023/08/14 03:12:56;;;;;;;3.10;2.80;;;;;;;22.50;67.18;97138.09;4952021;28;20050;-86
2023/08/14 03:15:22;;;;;;;2.75;2.53;;;;;;;22.55;66.83;97137.09;4946374;28;20395;-85
2023/08/14 03:17:47;;;;;;;3.10;2.90;;;;;;;22.56;66.61;97136.78;4952641;28;20078;-87
2023/08/14 03:20:13;;;;;;;2.90;2.58;;;;;;;22.53;66.82;97137.41;4960725;28;20054;-87
2023/08/14 03:22:38;;;;;;;4.47;2.80;;;;;;;22.46;66.81;97131.84;4961309;28;20043;-86
2023/08/14 03:25:04;;;;;;;3.95;3.65;;;;;;;22.44;66.74;97126.09;4956154;28;20122;-86
2023/08/14 03:27:30;;;;;;;2.60;2.40;;;;;;;22.44;67.14;97140.13;4923065;29;20031;-86
2023/08/14 03:29:55;;;;;;;3.13;2.50;;;;;;;22.43;66.86;97132.50;4923249;29;20142;-86
2023/08/14 03:32:20;;;;;;;2.90;2.60;;;;;;;22.46;67.22;97137.16;4949050;28;20046;-86
2023/08/14 03:34:46;;;;;;;3.25;2.60;;;;;;;22.45;67.04;97140.94;4942672;28;20093;-85
2023/08/14 03:37:11;;;;;;;2.72;2.53;;;;;;;22.34;67.13;97127.25;4957218;28;20037;-86
2023/08/14 03:39:37;;;;;;;2.75;2.55;;;;;;;22.44;66.76;97132.19;4941637;28;20042;-86
2023/08/14 03:42:02;;;;;;;3.25;2.97;;;;;;;22.42;67.14;97134.38;4956555;28;20043;-87
2023/08/14 03:44:27;;;;;;;3.00;2.78;;;;;;;22.25;67.10;97115.91;4973451;28;20129;-87
2023/08/14 03:46:53;;;;;;;2.40;2.20;;;;;;;22.26;67.28;97118.25;4956083;29;20102;-87
2023/08/14 03:49:18;;;;;;;2.75;2.55;;;;;;;22.34;66.74;97129.91;4958968;28;20057;-86
2023/08/14 03:51:43;;;;;;;2.53;2.28;;;;;;;22.41;66.67;97138.16;4959599;28;20058;-86
2023/08/14 03:54:09;;;;;;;3.60;2.63;;;;;;;22.28;66.38;97128.56;4940136;29;20075;-86
2023/08/14 03:56:34;;;;;;;4.30;2.60;;;;;;;22.26;66.59;97131.50;4969441;28;20089;-87
2023/08/14 03:59:00;;;;;;;3.08;2.78;;;;;;;22.20;66.61;97137.31;4959952;28;20038;-87
2023/08/14 04:01:26;;;;;;;3.20;2.90;;;;;;;22.24;66.91;97146.16;4971044;28;20447;-87
2023/08/14 04:03:51;;;;;;;3.40;3.00;;;;;;;22.14;67.21;97152.63;4942069;29;20407;-87
2023/08/14 04:06:19;;;;;;;2.95;2.60;;;;;;;22.13;66.80;97155.59;4951115;28;20034;-87
2023/08/14 04:08:44;;;;;;;3.45;3.15;;;;;;;22.11;66.82;97155.16;4943896;28;20026;-87
2023/08/14 04:11:09;;;;;;;2.97;2.55;;;;;;;22.10;66.89;97151.69;4957553;28;20035;-87
2023/08/14 04:13:35;;;;;;;2.83;2.60;;;;;;;21.77;67.40;97131.13;4976179;28;20030;-87
2023/08/14 04:16:00;;;;;;;3.22;2.55;;;;;;;21.73;68.37;97156.72;4957471;28;20224;-87
2023/08/14 04:18:36;;;;;;;3.10;2.80;;;;;;;21.64;68.14;97140.03;4965813;28;20094;-87
2023/08/14 04:21:01;;;;;;;3.20;2.90;;;;;;;21.50;68.76;97148.97;4973690;28;20498;-87
2023/08/14 04:23:28;;;;;;;2.30;2.20;;;;;;;21.42;68.52;97125.13;4956040;29;20027;-87
2023/08/14 04:25:53;;;;;;;2.88;2.67;;;;;;;21.50;68.52;97142.91;4949115;28;20065;-87
2023/08/14 04:28:19;;;;;;;3.53;2.58;;;;;;;21.38;68.91;97150.69;4941944;28;20400;-86
2023/08/14 04:30:44;;;;;;;3.42;2.80;;;;;;;21.19;69.66;97129.84;4953984;28;20053;-86
2023/08/14 04:33:10;;;;;;;3.42;2.78;;;;;;;21.31;69.28;97135.28;4950043;29;20367;-86
2023/08/14 04:35:37;;;;;;;4.38;3.10;;;;;;;21.45;68.95;97143.81;4945831;28;20551;-86
2023/08/14 04:38:04;;;;;;;3.20;2.88;;;;;;;21.30;68.85;97123.91;4961335;28;20102;-86
2023/08/14 04:40:29;;;;;;;3.90;3.10;;;;;;;21.32;69.37;97120.97;4935371;28;20035;-86
2023/08/14 04:42:54;;;;;;;3.05;2.65;;;;;;;21.32;69.21;97118.31;4936397;28;20034;-86
2023/08/14 04:45:20;;;;;;;3.13;2.78;;;;;;;21.28;69.11;97117.38;4950236;29;20039;-86
2023/08/14 04:47:46;;;;;;;5.38;3.50;;;;;;;21.31;69.31;97124.69;4948779;28;20043;-86
2023/08/14 04:50:11;;;;;;;9.90;3.95;;;;;;;21.34;69.10;97132.00;4955935;28;20041;-87
2023/08/14 04:52:37;;;;;;;3.13;2.83;;;;;;;21.26;69.70;97130.91;4956773;29;20027;-87
2023/08/14 04:55:02;;;;;;;3.45;3.10;;;;;;;21.22;69.94;97135.31;4971061;28;20505;-87
2023/08/14 04:57:30;;;;;;;3.28;2.72;;;;;;;21.33;69.94;97138.38;4956358;28;20109;-87
2023/08/14 04:59:56;;;;;;;3.85;2.80;;;;;;;21.34;69.34;97129.34;4934936;29;20035;-86
2023/08/14 05:02:21;;;;;;;4.28;3.13;;;;;;;21.42;69.51;97123.28;4945715;28;20126;-86
2023/08/14 05:04:46;;;;;;;3.72;3.30;;;;;;;21.45;68.98;97122.63;4922648;29;20391;-87
2023/08/14 05:07:12;;;;;;;2.97;2.78;;;;;;;21.54;69.04;97124.50;4921799;28;20039;-87
2023/08/14 05:09:37;;;;;;;3.03;2.83;;;;;;;21.56;69.09;97123.09;4948087;29;20398;-87
2023/08/14 05:12:03;;;;;;;3.55;3.22;;;;;;;21.54;69.27;97119.19;4976312;28;20039;-87
2023/08/14 05:14:28;;;;;;;3.58;3.05;;;;;;;21.46;69.63;97104.88;4946296;29;20027;-87
2023/08/14 05:16:53;;;;;;;2.92;2.72;;;;;;;21.47;69.77;97101.94;4949060;28;20244;-87
2023/08/14 05:19:19;;;;;;;3.30;3.00;;;;;;;21.71;69.36;97124.44;4929844;28;20046;-87
2023/08/14 05:21:45;;;;;;;3.10;2.70;;;;;;;21.70;69.31;97118.34;4965157;28;20035;-87
2023/08/14 05:24:13;;;;;;;4.30;3.30;;;;;;;21.66;69.07;97106.84;4951070;29;20039;-87
2023/08/14 05:26:38;;;;;;;3.33;3.05;;;;;;;21.65;69.25;97104.50;4961884;28;20093;-87
2023/08/14 05:29:04;;;;;;;3.95;3.10;;;;;;;21.85;69.69;97125.00;4937421;28;20039;-87
2023/08/14 05:31:29;;;;;;;5.05;4.05;;;;;;;21.86;69.55;97131.84;4919694;29;20570;-86
2023/08/14 05:33:54;;;;;;;3.55;2.67;;;;;;;21.85;69.41;97130.31;4921737;29;20114;-86
2023/08/14 05:36:20;;;;;;;4.15;3.13;;;;;;;21.83;69.44;97135.16;4978603;28;20043;-86
2023/08/14 05:38:45;;;;;;;3.13;2.88;;;;;;;21.90;69.49;97142.63;4935679;28;20541;-86
2023/08/14 05:41:11;;;;;;;3.13;2.83;;;;;;;21.94;69.40;97143.53;4939739;28;20438;-86
2023/08/14 05:43:36;;;;;;;3.40;3.10;;;;;;;22.01;69.30;97132.41;4940748;28;20030;-86
2023/08/14 05:46:02;;;;;;;3.58;2.90;;;;;;;21.98;69.52;97133.06;4953468;28;20027;-86
2023/08/14 05:48:27;;;;;;;4.20;3.00;;;;;;;21.99;69.24;97118.72;4970669;28;20062;-86
2023/08/14 05:50:52;;;;;;;4.03;3.65;;;;;;;22.00;69.71;97120.25;4970251;28;20035;-86
2023/08/14 05:53:18;;;;;;;3.67;3.28;;;;;;;21.88;69.04;97091.78;4944349;28;20209;-86
2023/08/14 05:55:43;;;;;;;4.10;3.65;;;;;;;22.06;69.49;97119.75;4952379;28;20487;-87
2023/08/14 05:58:09;;;;;;;4.88;3.17;;;;;;;22.14;68.95;97127.97;4953616;28;20046;-86
2023/08/14 06:00:36;;;;;;;4.28;3.10;;;;;;;22.19;69.15;97133.88;4940044;29;20034;-86
2023/08/14 06:03:02;;;;;;;4.72;2.75;;;;;;;22.24;69.21;97136.34;4948942;28;20050;-86
2023/08/14 06:05:31;;;;;;;4.65;3.20;;;;;;;22.28;69.13;97119.81;4935498;28;20288;-86
2023/08/14 06:07:57;;;;;;;3.13;2.88;;;;;;;22.18;69.41;97110.34;4936298;28;20066;-86
2023/08/14 06:10:23;;;;;;;3.42;3.13;;;;;;;22.34;69.35;97116.66;4935201;29;20039;-87
2023/08/14 06:12:49;;;;;;;3.40;3.10;;;;;;;22.44;69.47;97123.44;4949916;28;20046;-87
2023/08/14 06:15:15;;;;;;;4.00;3.63;;;;;;;22.50;69.44;97124.81;4971123;28;20135;-87
2023/08/14 06:17:41;;;;;;;4.35;3.35;;;;;;;22.61;69.45;97118.00;4965934;28;20063;-86
2023/08/14 06:20:09;;;;;;;7.25;3.80;;;;;;;22.67;69.72;97109.84;4949339;28;20501;-87
2023/08/14 06:22:43;;;;;;;3.47;3.13;;;;;;;22.92;69.02;97105.44;4972337;28;20035;-87
2023/08/14 06:25:09;;;;;;;3.75;3.42;;;;;;;23.02;69.45;97102.38;4939636;28;20394;-87
2023/08/14 06:27:35;;;;;;;3.40;3.10;;;;;;;23.14;68.42;97101.66;4991472;28;20042;-87
2023/08/14 06:30:00;;;;;;;3.28;2.97;;;;;;;23.18;68.18;97097.22;4974892;28;20039;-87
2023/08/14 06:32:26;;;;;;;3.78;3.20;;;;;;;23.26;67.87;97104.34;4970346;28;20477;-87
2023/08/14 06:34:51;;;;;;;3.45;3.15;;;;;;;23.40;67.61;97105.94;4940310;29;20095;-86
2023/08/14 06:37:16;;;;;;;3.63;3.33;;;;;;;23.41;68.23;97104.81;4939283;28;20038;-87
2023/08/14 06:39:42;;;;;;;3.42;3.22;;;;;;;23.43;67.53;97098.06;4926735;29;20039;-87
2023/08/14 06:42:08;;;;;;;3.33;3.03;;;;;;;23.58;67.23;97104.63;4968926;28;20099;-86
2023/08/14 06:44:34;;;;;;;3.53;3.22;;;;;;;23.79;67.38;97125.03;4954853;29;20030;-88
2023/08/14 06:46:59;;;;;;;3.55;3.25;;;;;;;23.86;67.13;97117.28;4943128;28;20035;-87
2023/08/14 06:49:25;;;;;;;2.75;2.55;;;;;;;23.91;66.77;97117.06;4955078;28;20042;-85
2023/08/14 06:51:51;;;;;;;3.33;3.03;;;;;;;23.93;66.89;97104.97;4959277;28;20106;-85
2023/08/14 06:54:16;;;;;;;4.05;3.33;;;;;;;23.99;66.84;97118.84;4953865;28;20102;-85
2023/08/14 06:56:41;;;;;;;3.28;2.97;;;;;;;24.05;66.40;97108.75;4955868;28;20030;-85
2023/08/14 06:59:07;;;;;;;3.28;2.95;;;;;;;24.26;66.36;97135.97;4951334;28;20031;-85
2023/08/14 07:01:32;;;;;;;3.45;3.10;;;;;;;24.37;65.53;97131.00;4937249;28;20462;-85
2023/08/14 07:03:57;;;;;;;3.00;2.70;;;;;;;24.45;65.75;97127.44;4969269;28;20030;-85
2023/08/14 07:06:23;;;;;;;3.53;3.22;;;;;;;24.54;65.51;97131.81;4969843;28;20194;-85
2023/08/14 07:08:48;;;;;;;3.70;3.40;;;;;;;24.61;65.39;97113.44;4950028;29;20434;-85
2023/08/14 07:11:14;;;;;;;3.47;3.10;;;;;;;24.68;66.16;97105.66;4927596;28;20046;-88
2023/08/14 07:13:39;;;;;;;3.25;2.92;;;;;;;24.74;65.63;97087.53;4959493;28;20046;-87
2023/08/14 07:16:04;;;;;;;4.55;2.90;;;;;;;24.85;65.76;97089.38;4957589;28;20039;-88
2023/08/14 07:18:30;;;;;;;3.28;2.97;;;;;;;24.90;65.40;97098.22;4965194;28;20038;-88
2023/08/14 07:20:57;;;;;;;3.97;3.05;;;;;;;25.05;65.27;97105.47;4969079;28;20045;-87
2023/08/14 07:23:22;;;;;;;4.25;2.92;;;;;;;25.14;64.94;97090.13;4944129;28;20117;-88
2023/08/14 07:25:49;;;;;;;3.40;3.10;;;;;;;25.40;64.03;97104.88;4935924;29;20595;-87
2023/08/14 07:28:15;;;;;;;2.80;2.60;;;;;;;25.37;63.92;97079.69;4922446;28;20456;-87
2023/08/14 07:30:40;;;;;;;3.38;3.08;;;;;;;25.50;63.26;97104.38;4938936;28;20482;-87
2023/08/14 07:33:07;;;;;;;3.58;3.28;;;;;;;25.47;64.17;97105.06;4954088;28;20044;-87
2023/08/14 07:35:33;;;;;;;4.32;3.17;;;;;;;25.42;63.97;97092.00;4955200;28;20066;-88
2023/08/14 07:37:58;;;;;;;2.95;2.75;;;;;;;25.60;63.56;97119.88;4951443;28;20040;-87
2023/08/14 07:40:24;;;;;;;3.90;3.20;;;;;;;25.53;64.27;97117.03;4934903;29;20035;-87
2023/08/14 07:42:50;;;;;;;3.33;3.13;;;;;;;25.49;64.60;97120.72;4945219;29;20557;-87
2023/08/14 07:45:15;;;;;;;3.55;3.00;;;;;;;25.56;65.15;97136.88;4968965;28;20062;-87
2023/08/14 07:47:41;;;;;;;3.28;2.95;;;;;;;25.44;64.20;97124.41;4971737;28;20045;-87
2023/08/14 07:50:07;;;;;;;3.15;2.95;;;;;;;25.52;64.71;97136.03;4942829;28;20035;-87
2023/08/14 07:52:34;;;;;;;3.55;2.95;;;;;;;25.57;64.81;97149.88;4931486;28;20082;-87
2023/08/14 07:55:00;;;;;;;3.30;3.03;;;;;;;25.59;64.08;97147.63;4969678;28;20089;-87
2023/08/14 07:57:26;;;;;;;3.05;2.83;;;;;;;25.52;64.85;97144.78;4987262;28;20479;-87
2023/08/14 07:59:51;;;;;;;3.28;2.97;;;;;;;25.66;64.76;97156.94;4954028;28;20038;-87
2023/08/14 08:02:16;;;;;;;3.78;3.15;;;;;;;25.72;64.08;97160.88;4951958;28;20042;-86
2023/08/14 08:04:42;;;;;;;3.17;2.88;;;;;;;25.75;64.44;97152.19;4936659;28;20479;-85
2023/08/14 08:07:07;;;;;;;3.88;3.22;;;;;;;25.80;64.29;97146.59;4952007;28;20031;-85
2023/08/14 08:09:33;;;;;;;3.13;2.78;;;;;;;25.85;63.38;97140.25;4924287;29;20031;-86
2023/08/14 08:11:59;;;;;;;3.88;3.20;;;;;;;26.02;63.37;97163.91;4948989;28;20112;-85
2023/08/14 08:14:25;;;;;;;3.33;3.03;;;;;;;26.11;63.31;97166.41;4957173;28;20086;-86
2023/08/14 08:16:50;;;;;;;2.83;2.63;;;;;;;25.97;63.26;97159.59;4972515;28;20517;-86
2023/08/14 08:19:16;;;;;;;2.67;2.38;;;;;;;26.15;62.95;97173.38;4937807;28;20039;-86
2023/08/14 08:21:41;;;;;;;3.05;2.53;;;;;;;26.25;62.50;97182.75;4970635;28;20412;-86
2023/08/14 08:24:07;;;;;;;2.90;2.70;;;;;;;26.21;62.52;97181.88;4952014;28;20137;-86
2023/08/14 08:26:33;;;;;;;2.90;2.70;;;;;;;26.14;63.68;97182.50;4955419;28;20380;-86
2023/08/14 08:28:58;;;;;;;3.00;2.80;;;;;;;26.12;63.66;97166.06;4957277;28;20061;-86
2023/08/14 08:31:24;;;;;;;3.45;3.08;;;;;;;26.20;64.14;97169.69;4951413;28;20039;-86
2023/08/14 08:33:49;;;;;;;3.15;2.63;;;;;;;26.26;63.09;97176.28;4953180;29;20444;-87
2023/08/14 08:36:18;;;;;;;2.92;2.63;;;;;;;26.31;62.80;97160.00;4925405;29;20517;-86
2023/08/14 08:38:46;;;;;;;4.07;2.90;;;;;;;26.48;62.45;97187.44;4925383;29;20035;-85
2023/08/14 08:41:26;;;;;;;4.93;3.10;;;;;;;26.57;62.58;97180.00;4940601;28;20034;-86
2023/08/14 08:43:59;;;;;;;2.95;2.75;;;;;;;26.59;62.19;97180.41;4949436;28;20058;-86
2023/08/14 08:46:24;;;;;;;3.00;2.72;;;;;;;26.56;61.89;97170.44;4956357;28;20042;-86
2023/08/14 08:48:51;;;;;;;3.17;2.88;;;;;;;26.76;62.40;97187.28;4952043;28;20027;-86
2023/08/14 08:51:17;;;;;;;3.50;3.20;;;;;;;26.97;61.72;97186.16;4950806;28;20073;-87
2023/08/14 08:53:43;;;;;;;3.65;3.22;;;;;;;27.25;60.74;97173.34;4951515;28;20062;-86
2023/08/14 08:56:08;;;;;;;3.28;3.08;;;;;;;27.51;60.37;97184.53;4968126;28;20090;-86
2023/08/14 08:58:33;;;;;;;3.10;2.60;;;;;;;27.49;59.46;97168.84;4948784;29;20353;-86
2023/08/14 09:00:59;;;;;;;3.20;2.90;;;;;;;27.58;59.07;97168.59;4960958;28;20093;-87
2023/08/14 09:03:24;;;;;;;3.00;2.85;;;;;;;27.82;58.63;97178.94;4948584;28;20552;-87
2023/08/14 09:05:51;;;;;;;3.38;3.17;;;;;;;27.92;57.19;97190.22;4952857;28;20116;-86
2023/08/14 09:08:17;;;;;;;4.40;3.05;;;;;;;27.80;58.71;97185.78;4927404;28;20031;-86
2023/08/14 09:10:42;;;;;;;3.70;3.40;;;;;;;27.67;58.11;97182.50;4946595;29;20035;-88
2023/08/14 09:13:07;;;;;;;3.03;2.83;;;;;;;27.60;59.14;97185.06;4948259;28;20402;-86
2023/08/14 09:15:33;;;;;;;3.03;2.83;;;;;;;27.56;59.03;97182.34;4923978;29;20031;-86
2023/08/14 09:17:58;;;;;;;3.40;3.10;;;;;;;27.62;58.57;97180.91;4948703;28;20050;-87
2023/08/14 09:20:24;;;;;;;2.97;2.78;;;;;;;27.69;58.65;97179.47;4951475;28;20062;-87
2023/08/14 09:22:55;;;;;;;3.33;3.03;;;;;;;27.68;58.63;97183.31;4951668;28;20483;-86
2023/08/14 09:25:21;;;;;;;3.05;2.78;;;;;;;27.68;59.23;97181.38;4951000;28;20085;-86
2023/08/14 09:27:46;;;;;;;3.85;3.55;;;;;;;27.70;58.68;97173.00;4922033;29;20459;-86
2023/08/14 09:30:13;;;;;;;3.20;3.00;;;;;;;27.74;58.62;97169.25;4947539;29;20050;-88
2023/08/14 09:32:38;;;;;;;3.33;3.00;;;;;;;27.78;58.83;97162.06;4945709;28;20054;-87
2023/08/14 09:35:04;;;;;;;3.72;3.53;;;;;;;27.90;59.02;97163.00;4951896;28;20035;-87
2023/08/14 09:37:30;;;;;;;3.55;3.25;;;;;;;27.94;59.33;97179.91;4949298;29;20114;-86
2023/08/14 09:40:13;;;;;;;3.30;3.10;;;;;;;28.23;59.68;97175.78;4961281;28;20078;-87
2023/08/14 09:42:39;;;;;;;3.35;3.15;;;;;;;28.15;59.54;97164.16;4948829;29;20499;-87
2023/08/14 09:45:05;;;;;;;3.00;2.67;;;;;;;28.30;58.56;97175.09;4951742;28;20031;-86
2023/08/14 09:47:31;;;;;;;3.20;3.00;;;;;;;28.31;58.40;97161.34;4951647;28;20506;-86
2023/08/14 09:49:57;;;;;;;3.58;3.28;;;;;;;28.32;58.70;97167.47;4939404;28;20121;-86
2023/08/14 09:52:24;;;;;;;3.42;3.22;;;;;;;28.37;58.59;97154.53;4947346;28;20142;-86
2023/08/14 09:54:49;;;;;;;3.63;3.33;;;;;;;28.49;58.53;97160.81;4969335;28;20043;-86
2023/08/14 09:57:20;;;;;;;3.50;3.28;;;;;;;28.70;58.05;97177.22;4970488;28;20042;-86
2023/08/14 09:59:46;;;;;;;3.25;3.05;;;;;;;28.77;57.21;97181.84;4932413;29;20046;-86
2023/08/14 10:02:15;;;;;;;3.13;2.92;;;;;;;28.91;57.72;97174.00;4930953;28;20043;-86
2023/08/14 10:04:43;;;;;;;3.20;2.97;;;;;;;29.08;55.11;97193.31;4975992;28;20039;-87
2023/08/14 10:07:09;;;;;;;3.40;3.10;;;;;;;28.97;55.43;97173.69;4976713;28;20476;-89
2023/08/14 10:09:38;;;;;;;2.95;2.75;;;;;;;29.27;54.98;97189.72;4971054;28;20098;-87
2023/08/14 10:12:06;;;;;;;3.53;3.05;;;;;;;29.68;54.77;97198.56;4936560;29;20047;-86
2023/08/14 10:14:34;;;;;;;3.28;3.03;;;;;;;29.85;55.82;97193.75;4930208;29;20391;-86
2023/08/14 10:17:01;;;;;;;3.05;2.92;;;;;;;30.11;53.08;97200.06;4962466;28;20306;-87
2023/08/14 10:19:28;;;;;;;2.97;2.78;;;;;;;30.33;52.90;97215.22;4939459;29;20122;-87
2023/08/14 10:21:54;;;;;;;3.13;2.83;;;;;;;30.12;52.63;97213.13;4973742;28;20031;-87
2023/08/14 10:24:21;;;;;;;3.28;3.03;;;;;;;29.80;51.23;97208.31;4964620;28;20089;-88
2023/08/14 10:26:47;;;;;;;3.15;2.95;;;;;;;29.80;52.62;97213.66;4962383;28;20027;-87
2023/08/14 10:29:13;;;;;;;4.28;3.80;;;;;;;29.58;52.63;97201.16;4937755;28;20054;-89
2023/08/14 10:31:39;;;;;;;2.92;2.67;;;;;;;29.38;53.99;97187.94;4961796;28;20035;-88
2023/08/14 10:34:04;;;;;;;2.95;2.75;;;;;;;29.41;53.27;97207.91;4937117;28;20035;-88
2023/08/14 10:36:30;;;;;;;2.75;2.55;;;;;;;29.22;52.20;97176.66;4984293;28;20414;-87
2023/08/14 10:39:06;;;;;;;3.30;2.80;;;;;;;29.97;51.25;97217.66;4963983;28;20027;-89
2023/08/14 10:41:35;;;;;;;2.83;2.63;;;;;;;29.92;50.58;97201.88;4963759;28;20094;-88
2023/08/14 10:44:05;;;;;;;2.90;2.70;;;;;;;29.97;51.23;97228.38;4973854;28;20629;-87
2023/08/14 10:46:30;;;;;;;3.60;3.35;;;;;;;29.81;52.69;97230.53;4959980;28;20412;-87
2023/08/14 10:48:58;;;;;;;4.63;3.20;;;;;;;29.63;53.42;97225.75;4939478;29;20042;-88
2023/08/14 10:51:30;;;;;;;3.15;2.90;;;;;;;29.26;53.99;97205.06;4945934;29;20506;-85
2023/08/14 10:54:08;;;;;;;3.28;3.08;;;;;;;29.43;52.31;97208.31;4966827;28;20034;-86
2023/08/14 10:56:45;;;;;;;3.53;3.28;;;;;;;29.54;53.36;97227.94;4953920;28;20043;-86
2023/08/14 10:59:22;;;;;;;3.17;2.88;;;;;;;29.60;52.05;97236.44;4970360;28;20045;-86
2023/08/14 11:02:14;;;;;;;3.17;2.72;;;;;;;29.58;50.87;97244.88;4976230;28;20097;-87
2023/08/14 11:05:00;;;;;;;3.30;3.00;;;;;;;29.21;52.53;97244.84;4964631;28;20058;-89
2023/08/14 11:07:32;;;;;;;3.17;2.97;;;;;;;28.76;53.96;97231.25;4937359;29;20035;-86
2023/08/14 11:09:58;;;;;;;6.38;3.35;;;;;;;28.85;51.35;97231.72;4921013;28;20265;-89
2023/08/14 11:12:24;;;;;;;5.38;3.50;;;;;;;28.85;52.19;97223.69;4938652;28;20035;-87
2023/08/14 11:14:50;;;;;;;4.15;2.78;;;;;;;29.50;49.73;97233.28;4934400;29;20047;-88
2023/08/14 11:17:16;;;;;;;3.22;2.90;;;;;;;29.92;47.18;97222.56;4954925;28;20138;-88
2023/08/14 11:19:41;;;;;;;3.67;3.25;;;;;;;29.94;45.67;97199.59;4951166;28;20062;-87
2023/08/14 11:22:07;;;;;;;3.42;3.10;;;;;;;30.18;47.28;97224.31;4960424;28;20511;-86
2023/08/14 11:24:32;;;;;;;3.38;3.03;;;;;;;30.37;45.46;97218.72;4936849;28;20105;-88
2023/08/14 11:27:01;;;;;;;4.00;2.92;;;;;;;30.42;44.46;97210.31;4944406;29;20058;-88
2023/08/14 11:29:27;;;;;;;3.00;2.60;;;;;;;30.22;45.19;97190.97;4936047;28;20470;-88
2023/08/14 11:31:52;;;;;;;3.47;3.17;;;;;;;30.20;45.61;97182.50;4974752;28;20015;-91